sensor_id;sensor_type;location;lat;lon;timestamp;pressure;altitude;pressure_sealevel;temperature;humidity
50852;BME280;43953;45.508;-122.806;2023-04-20T00:00:04;101608.13;;;12.89;50.31
50852;BME280;43953;45.508;-122.806;2023-04-20T00:00:41;101610.63;;;12.91;50.65
50852;BME280;43953;45.508;-122.806;2023-04-20T00:01:13;101608.97;;;12.90;51.12
50852;BME280;43953;45.508;-122.806;2023-04-20T00:01:45;101607.94;;;12.91;50.89
50852;BME280;43953;45.508;-122.806;2023-04-20T00:02:17;101605.22;;;12.91;50.74
50852;BME280;43953;45.508;-122.806;2023-04-20T00:02:49;101607.72;;;12.92;50.70
50852;BME280;43953;45.508;-122.806;2023-04-20T00:03:21;101612.94;;;12.94;50.03
50852;BME280;43953;45.508;-122.806;2023-04-20T00:03:53;101610.22;;;12.94;49.99
50852;BME280;43953;45.508;-122.806;2023-04-20T00:04:24;101619.81;;;12.96;49.91
50852;BME280;43953;45.508;-122.806;2023-04-20T00:04:56;101609.81;;;12.97;49.54
50852;BME280;43953;45.508;-122.806;2023-04-20T00:05:28;101615.88;;;12.99;49.67
50852;BME280;43953;45.508;-122.806;2023-04-20T00:06:02;101613.16;;;12.99;49.41
50852;BME280;43953;45.508;-122.806;2023-04-20T00:06:34;101608.38;;;13.01;49.46
50852;BME280;43953;45.508;-122.806;2023-04-20T00:07:05;101611.94;;;13.02;49.15
50852;BME280;43953;45.508;-122.806;2023-04-20T00:07:37;101610.06;;;13.02;49.17
50852;BME280;43953;45.508;-122.806;2023-04-20T00:08:11;101616.06;;;13.04;49.61
50852;BME280;43953;45.508;-122.806;2023-04-20T00:08:43;101614.22;;;13.05;49.34
50852;BME280;43953;45.508;-122.806;2023-04-20T00:09:15;101618.59;;;13.06;49.44
50852;BME280;43953;45.508;-122.806;2023-04-20T00:09:47;101619.00;;;13.03;49.66
50852;BME280;43953;45.508;-122.806;2023-04-20T00:10:18;101616.06;;;13.04;49.88
50852;BME280;43953;45.508;-122.806;2023-04-20T00:10:50;101613.38;;;13.04;49.84
50852;BME280;43953;45.508;-122.806;2023-04-20T00:11:22;101612.53;;;13.04;50.04
50852;BME280;43953;45.508;-122.806;2023-04-20T00:11:53;101612.34;;;13.05;50.07
50852;BME280;43953;45.508;-122.806;2023-04-20T00:12:25;101607.94;;;13.04;50.30
50852;BME280;43953;45.508;-122.806;2023-04-20T00:12:57;101611.31;;;13.06;49.73
50852;BME280;43953;45.508;-122.806;2023-04-20T00:13:29;101609.00;;;13.03;49.05
50852;BME280;43953;45.508;-122.806;2023-04-20T00:14:01;101609.00;;;13.03;49.25
50852;BME280;43953;45.508;-122.806;2023-04-20T00:14:32;101616.94;;;13.05;49.69
50852;BME280;43953;45.508;-122.806;2023-04-20T00:15:05;101616.06;;;13.04;49.83
50852;BME280;43953;45.508;-122.806;2023-04-20T00:15:37;101608.81;;;13.05;49.85
50852;BME280;43953;45.508;-122.806;2023-04-20T00:16:09;101615.66;;;13.07;50.23
50852;BME280;43953;45.508;-122.806;2023-04-20T00:16:41;101614.41;;;13.10;50.54
50852;BME280;43953;45.508;-122.806;2023-04-20T00:17:13;101615.69;;;13.14;49.73
50852;BME280;43953;45.508;-122.806;2023-04-20T00:17:45;101614.47;;;13.16;49.71
50852;BME280;43953;45.508;-122.806;2023-04-20T00:18:18;101613.00;;;13.20;49.46
50852;BME280;43953;45.508;-122.806;2023-04-20T00:18:50;101619.06;;;13.23;49.33
50852;BME280;43953;45.508;-122.806;2023-04-20T00:19:22;101614.25;;;13.25;49.04
50852;BME280;43953;45.508;-122.806;2023-04-20T00:19:54;101611.38;;;13.26;48.26
50852;BME280;43953;45.508;-122.806;2023-04-20T00:20:26;101613.25;;;13.26;48.49
50852;BME280;43953;45.508;-122.806;2023-04-20T00:20:58;101614.94;;;13.27;48.30
50852;BME280;43953;45.508;-122.806;2023-04-20T00:21:30;101609.50;;;13.27;48.54
50852;BME280;43953;45.508;-122.806;2023-04-20T00:22:02;101612.44;;;13.25;48.27
50852;BME280;43953;45.508;-122.806;2023-04-20T00:22:34;101613.25;;;13.26;48.23
50852;BME280;43953;45.508;-122.806;2023-04-20T00:23:06;101614.94;;;13.27;48.57
50852;BME280;43953;45.508;-122.806;2023-04-20T00:23:38;101614.50;;;13.30;48.16
50852;BME280;43953;45.508;-122.806;2023-04-20T00:24:10;101610.56;;;13.32;47.94
50852;BME280;43953;45.508;-122.806;2023-04-20T00:24:41;101614.94;;;13.33;47.80
50852;BME280;43953;45.508;-122.806;2023-04-20T00:25:13;101615.75;;;13.34;47.93
50852;BME280;43953;45.508;-122.806;2023-04-20T00:25:45;101621.16;;;13.34;47.90
50852;BME280;43953;45.508;-122.806;2023-04-20T00:26:19;101620.97;;;13.35;47.97
50852;BME280;43953;45.508;-122.806;2023-04-20T00:26:51;101615.56;;;13.35;48.19
50852;BME280;43953;45.508;-122.806;2023-04-20T00:27:23;101608.28;;;13.36;48.14
50852;BME280;43953;45.508;-122.806;2023-04-20T00:27:55;101612.03;;;13.35;47.50
50852;BME280;43953;45.508;-122.806;2023-04-20T00:28:27;101604.94;;;13.34;47.32
50852;BME280;43953;45.508;-122.806;2023-04-20T00:28:59;101613.69;;;13.36;47.47
50852;BME280;43953;45.508;-122.806;2023-04-20T00:29:30;101615.97;;;13.39;47.46
50852;BME280;43953;45.508;-122.806;2023-04-20T00:30:02;101613.28;;;13.39;47.23
50852;BME280;43953;45.508;-122.806;2023-04-20T00:30:36;101618.50;;;13.40;47.25
50852;BME280;43953;45.508;-122.806;2023-04-20T00:31:08;101617.44;;;13.41;46.91
50852;BME280;43953;45.508;-122.806;2023-04-20T00:31:40;101614.56;;;13.43;47.27
50852;BME280;43953;45.508;-122.806;2023-04-20T00:32:12;101623.28;;;13.45;47.53
50852;BME280;43953;45.508;-122.806;2023-04-20T00:32:44;101619.53;;;13.46;47.41
50852;BME280;43953;45.508;-122.806;2023-04-20T00:33:16;101623.28;;;13.45;47.64
50852;BME280;43953;45.508;-122.806;2023-04-20T00:33:48;101624.31;;;13.44;47.31
50852;BME280;43953;45.508;-122.806;2023-04-20T00:34:20;101619.09;;;13.42;47.55
50852;BME280;43953;45.508;-122.806;2023-04-20T00:34:52;101624.31;;;13.44;47.53
50852;BME280;43953;45.508;-122.806;2023-04-20T00:35:23;101622.25;;;13.46;47.79
50852;BME280;43953;45.508;-122.806;2023-04-20T00:35:55;101614.75;;;13.48;47.56
50852;BME280;43953;45.508;-122.806;2023-04-20T00:36:27;101624.53;;;13.49;47.47
50852;BME280;43953;45.508;-122.806;2023-04-20T00:37:00;101620.78;;;13.50;47.05
50852;BME280;43953;45.508;-122.806;2023-04-20T00:37:32;101614.34;;;13.51;47.34
50852;BME280;43953;45.508;-122.806;2023-04-20T00:38:03;101610.78;;;13.51;47.12
50852;BME280;43953;45.508;-122.806;2023-04-20T00:38:35;101618.09;;;13.50;47.27
50852;BME280;43953;45.508;-122.806;2023-04-20T00:39:07;101614.56;;;13.50;47.20
50852;BME280;43953;45.508;-122.806;2023-04-20T00:39:39;101619.53;;;13.46;47.33
50852;BME280;43953;45.508;-122.806;2023-04-20T00:40:11;101628.06;;;13.43;47.54
50852;BME280;43953;45.508;-122.806;2023-04-20T00:40:43;101616.63;;;13.41;47.69
50852;BME280;43953;45.508;-122.806;2023-04-20T00:41:19;101614.97;;;13.40;47.90
50852;BME280;43953;45.508;-122.806;2023-04-20T00:41:51;101620.78;;;13.43;47.74
50852;BME280;43953;45.508;-122.806;2023-04-20T00:42:22;101618.91;;;13.44;47.74
50852;BME280;43953;45.508;-122.806;2023-04-20T00:42:54;101618.28;;;13.42;47.17
50852;BME280;43953;45.508;-122.806;2023-04-20T00:43:26;101628.28;;;13.48;47.36
50852;BME280;43953;45.508;-122.806;2023-04-20T00:43:58;101630.16;;;13.48;47.47
50852;BME280;43953;45.508;-122.806;2023-04-20T00:44:31;101627.84;;;13.51;47.15
50852;BME280;43953;45.508;-122.806;2023-04-20T00:45:03;101633.91;;;13.53;47.09
50852;BME280;43953;45.508;-122.806;2023-04-20T00:45:34;101630.38;;;13.53;46.76
50852;BME280;43953;45.508;-122.806;2023-04-20T00:46:06;101633.28;;;13.51;46.34
50852;BME280;43953;45.508;-122.806;2023-04-20T00:46:39;101629.72;;;13.51;46.50
50852;BME280;43953;45.508;-122.806;2023-04-20T00:47:11;101634.13;;;13.52;46.31
50852;BME280;43953;45.508;-122.806;2023-04-20T00:47:43;101629.97;;;13.49;46.53
50852;BME280;43953;45.508;-122.806;2023-04-20T00:48:17;101627.25;;;13.49;46.60
50852;BME280;43953;45.508;-122.806;2023-04-20T00:48:50;101627.03;;;13.51;46.50
50852;BME280;43953;45.508;-122.806;2023-04-20T00:49:30;101635.16;;;13.51;46.17
50852;BME280;43953;45.508;-122.806;2023-04-20T00:50:05;101629.31;;;13.47;46.24
50852;BME280;43953;45.508;-122.806;2023-04-20T00:50:41;101631.38;;;13.45;46.87
50852;BME280;43953;45.508;-122.806;2023-04-20T00:51:13;101625.38;;;13.43;46.83
50852;BME280;43953;45.508;-122.806;2023-04-20T00:51:45;101628.91;;;13.43;46.72
50852;BME280;43953;45.508;-122.806;2023-04-20T00:52:17;101625.38;;;13.43;46.91
50852;BME280;43953;45.508;-122.806;2023-04-20T00:52:49;101631.38;;;13.45;46.77
50852;BME280;43953;45.508;-122.806;2023-04-20T00:53:20;101630.78;;;13.43;46.83
50852;BME280;43953;45.508;-122.806;2023-04-20T00:53:52;101636.19;;;13.43;46.93
50852;BME280;43953;45.508;-122.806;2023-04-20T00:54:26;101630.56;;;13.45;46.99
50852;BME280;43953;45.508;-122.806;2023-04-20T00:54:58;101633.06;;;13.46;47.03
50852;BME280;43953;45.508;-122.806;2023-04-20T00:55:31;101635.78;;;13.46;47.06
50852;BME280;43953;45.508;-122.806;2023-04-20T00:56:03;101634.72;;;13.47;47.04
50852;BME280;43953;45.508;-122.806;2023-04-20T00:56:35;101637.44;;;13.47;46.40
50852;BME280;43953;45.508;-122.806;2023-04-20T00:57:11;101633.69;;;13.48;46.34
50852;BME280;43953;45.508;-122.806;2023-04-20T00:57:43;101635.38;;;13.49;46.68
50852;BME280;43953;45.508;-122.806;2023-04-20T00:58:15;101642.44;;;13.50;46.57
50852;BME280;43953;45.508;-122.806;2023-04-20T00:58:47;101636.63;;;13.53;47.01
50852;BME280;43953;45.508;-122.806;2023-04-20T00:59:20;101638.25;;;13.54;46.88
50852;BME280;43953;45.508;-122.806;2023-04-20T00:59:52;101635.38;;;13.56;46.32
50852;BME280;43953;45.508;-122.806;2023-04-20T01:00:24;101633.06;;;13.53;46.01
50852;BME280;43953;45.508;-122.806;2023-04-20T01:00:57;101635.78;;;13.53;45.82
50852;BME280;43953;45.508;-122.806;2023-04-20T01:01:29;101633.91;;;13.53;46.23
50852;BME280;43953;45.508;-122.806;2023-04-20T01:02:02;101638.69;;;13.51;46.15
50852;BME280;43953;45.508;-122.806;2023-04-20T01:02:33;101642.44;;;13.50;46.15
50852;BME280;43953;45.508;-122.806;2023-04-20T01:03:06;101643.25;;;13.51;46.47
50852;BME280;43953;45.508;-122.806;2023-04-20T01:03:39;101642.63;;;13.49;46.23
50852;BME280;43953;45.508;-122.806;2023-04-20T01:04:10;101638.69;;;13.45;46.08
50852;BME280;43953;45.508;-122.806;2023-04-20T01:04:46;101641.59;;;13.43;46.12
50852;BME280;43953;45.508;-122.806;2023-04-20T01:05:18;101644.50;;;13.41;46.46
50852;BME280;43953;45.508;-122.806;2023-04-20T01:05:50;101639.91;;;13.42;46.41
50852;BME280;43953;45.508;-122.806;2023-04-20T01:06:22;101647.00;;;13.43;46.20
50852;BME280;43953;45.508;-122.806;2023-04-20T01:06:54;101644.72;;;13.47;46.02
50852;BME280;43953;45.508;-122.806;2023-04-20T01:07:26;101645.56;;;13.47;45.95
50852;BME280;43953;45.508;-122.806;2023-04-20T01:08:00;101648.25;;;13.47;46.02
50852;BME280;43953;45.508;-122.806;2023-04-20T01:08:31;101647.44;;;13.47;46.29
50852;BME280;43953;45.508;-122.806;2023-04-20T01:09:03;101654.50;;;13.48;46.92
50852;BME280;43953;45.508;-122.806;2023-04-20T01:09:38;101643.69;;;13.48;46.00
50852;BME280;43953;45.508;-122.806;2023-04-20T01:10:10;101654.31;;;13.49;45.69
50852;BME280;43953;45.508;-122.806;2023-04-20T01:10:42;101659.72;;;13.49;45.71
50852;BME280;43953;45.508;-122.806;2023-04-20T01:11:14;101651.59;;;13.49;45.78
50852;BME280;43953;45.508;-122.806;2023-04-20T01:11:46;101650.56;;;13.50;45.88
50852;BME280;43953;45.508;-122.806;2023-04-20T01:12:18;101653.25;;;13.50;45.97
50852;BME280;43953;45.508;-122.806;2023-04-20T01:12:49;101659.50;;;13.51;45.99
50852;BME280;43953;45.508;-122.806;2023-04-20T01:13:21;101654.31;;;13.49;45.41
50852;BME280;43953;45.508;-122.806;2023-04-20T01:13:53;101648.91;;;13.49;45.04
50852;BME280;43953;45.508;-122.806;2023-04-20T01:14:25;101648.25;;;13.47;44.60
50852;BME280;43953;45.508;-122.806;2023-04-20T01:14:57;101651.16;;;13.46;44.51
50852;BME280;43953;45.508;-122.806;2023-04-20T01:15:29;101648.66;;;13.44;44.57
50852;BME280;43953;45.508;-122.806;2023-04-20T01:16:01;101648.66;;;13.44;44.95
50852;BME280;43953;45.508;-122.806;2023-04-20T01:16:33;101656.16;;;13.42;45.15
50852;BME280;43953;45.508;-122.806;2023-04-20T01:17:06;101650.75;;;13.42;45.35
50852;BME280;43953;45.508;-122.806;2023-04-20T01:17:38;101658.25;;;13.40;44.92
50852;BME280;43953;45.508;-122.806;2023-04-20T01:18:10;101659.06;;;13.40;45.51
50852;BME280;43953;45.508;-122.806;2023-04-20T01:18:45;101664.66;;;13.39;45.61
50852;BME280;43953;45.508;-122.806;2023-04-20T01:19:18;101664.66;;;13.39;45.11
50852;BME280;43953;45.508;-122.806;2023-04-20T01:19:51;101664.25;;;13.35;44.70
50852;BME280;43953;45.508;-122.806;2023-04-20T01:20:23;101663.63;;;13.33;44.78
50852;BME280;43953;45.508;-122.806;2023-04-20T01:20:55;101661.13;;;13.32;45.05
50852;BME280;43953;45.508;-122.806;2023-04-20T01:21:26;101661.13;;;13.32;44.72
50852;BME280;43953;45.508;-122.806;2023-04-20T01:21:58;101666.53;;;13.32;45.04
50852;BME280;43953;45.508;-122.806;2023-04-20T01:22:30;101671.94;;;13.32;44.95
50852;BME280;43953;45.508;-122.806;2023-04-20T01:23:02;101667.56;;;13.31;44.89
50852;BME280;43953;45.508;-122.806;2023-04-20T01:23:34;101670.25;;;13.31;44.72
50852;BME280;43953;45.508;-122.806;2023-04-20T01:24:06;101668.59;;;13.30;44.83
50852;BME280;43953;45.508;-122.806;2023-04-20T01:24:38;101670.25;;;13.31;45.12
50852;BME280;43953;45.508;-122.806;2023-04-20T01:25:09;101667.56;;;13.31;45.22
50852;BME280;43953;45.508;-122.806;2023-04-20T01:25:41;101668.59;;;13.30;45.45
50852;BME280;43953;45.508;-122.806;2023-04-20T01:26:15;101665.72;;;13.31;45.06
50852;BME280;43953;45.508;-122.806;2023-04-20T01:26:47;101673.19;;;13.29;45.31
50852;BME280;43953;45.508;-122.806;2023-04-20T01:27:19;101665.91;;;13.30;45.08
50852;BME280;43953;45.508;-122.806;2023-04-20T01:27:51;101670.25;;;13.31;45.04
50852;BME280;43953;45.508;-122.806;2023-04-20T01:28:22;101672.97;;;13.31;45.53
50852;BME280;43953;45.508;-122.806;2023-04-20T01:28:56;101679.00;;;13.33;45.41
50852;BME280;43953;45.508;-122.806;2023-04-20T01:29:29;101676.31;;;13.33;45.23
50852;BME280;43953;45.508;-122.806;2023-04-20T01:30:00;101674.44;;;13.33;45.06
50852;BME280;43953;45.508;-122.806;2023-04-20T01:30:33;101675.25;;;13.34;44.98
50852;BME280;43953;45.508;-122.806;2023-04-20T01:31:06;101671.72;;;13.33;45.08
50852;BME280;43953;45.508;-122.806;2023-04-20T01:31:38;101680.69;;;13.34;45.02
50852;BME280;43953;45.508;-122.806;2023-04-20T01:32:11;101672.78;;;13.32;44.73
50852;BME280;43953;45.508;-122.806;2023-04-20T01:32:43;101674.44;;;13.33;44.69
50852;BME280;43953;45.508;-122.806;2023-04-20T01:33:15;101673.59;;;13.33;44.63
50852;BME280;43953;45.508;-122.806;2023-04-20T01:33:46;101676.53;;;13.31;44.91
50852;BME280;43953;45.508;-122.806;2023-04-20T01:34:18;101675.66;;;13.31;44.57
50852;BME280;43953;45.508;-122.806;2023-04-20T01:34:50;101674.00;;;13.30;44.67
50852;BME280;43953;45.508;-122.806;2023-04-20T01:35:22;101672.97;;;13.31;44.80
50852;BME280;43953;45.508;-122.806;2023-04-20T01:35:54;101681.09;;;13.31;44.90
50852;BME280;43953;45.508;-122.806;2023-04-20T01:36:25;101681.09;;;13.31;45.25
50852;BME280;43953;45.508;-122.806;2023-04-20T01:36:57;101681.09;;;13.31;45.60
50852;BME280;43953;45.508;-122.806;2023-04-20T01:37:29;101683.78;;;13.31;45.76
50852;BME280;43953;45.508;-122.806;2023-04-20T01:38:01;101683.78;;;13.31;45.57
50852;BME280;43953;45.508;-122.806;2023-04-20T01:38:33;101691.91;;;13.31;45.09
50852;BME280;43953;45.508;-122.806;2023-04-20T01:39:05;101688.38;;;13.30;45.08
50852;BME280;43953;45.508;-122.806;2023-04-20T01:39:38;101686.50;;;13.31;45.13
50852;BME280;43953;45.508;-122.806;2023-04-20T01:40:12;101684.84;;;13.30;45.39
50852;BME280;43953;45.508;-122.806;2023-04-20T01:40:43;101684.84;;;13.30;45.24
50852;BME280;43953;45.508;-122.806;2023-04-20T01:41:15;101679.44;;;13.30;45.51
50852;BME280;43953;45.508;-122.806;2023-04-20T01:41:47;101682.34;;;13.28;45.25
50852;BME280;43953;45.508;-122.806;2023-04-20T01:42:19;101686.06;;;13.27;45.35
50852;BME280;43953;45.508;-122.806;2023-04-20T01:42:51;101686.28;;;13.26;45.58
50852;BME280;43953;45.508;-122.806;2023-04-20T01:43:23;101691.69;;;13.26;45.92
50852;BME280;43953;45.508;-122.806;2023-04-20T01:43:54;101703.50;;;13.25;46.05
50852;BME280;43953;45.508;-122.806;2023-04-20T01:44:26;101692.69;;;13.25;45.59
50852;BME280;43953;45.508;-122.806;2023-04-20T01:44:58;101701.00;;;13.23;45.65
50852;BME280;43953;45.508;-122.806;2023-04-20T01:45:29;101697.47;;;13.23;45.57
50852;BME280;43953;45.508;-122.806;2023-04-20T01:46:01;101703.91;;;13.21;45.43
50852;BME280;43953;45.508;-122.806;2023-04-20T01:46:39;101700.38;;;13.21;45.13
50852;BME280;43953;45.508;-122.806;2023-04-20T01:47:11;101699.53;;;13.20;45.48
50852;BME280;43953;45.508;-122.806;2023-04-20T01:47:43;101703.06;;;13.21;44.89
50852;BME280;43953;45.508;-122.806;2023-04-20T01:48:15;101701.41;;;13.20;44.98
50852;BME280;43953;45.508;-122.806;2023-04-20T01:48:47;101703.06;;;13.21;44.83
50852;BME280;43953;45.508;-122.806;2023-04-20T01:49:18;101707.66;;;13.20;44.96
50852;BME280;43953;45.508;-122.806;2023-04-20T01:49:50;101705.13;;;13.19;44.74
50852;BME280;43953;45.508;-122.806;2023-04-20T01:50:22;101712.63;;;13.17;44.93
50852;BME280;43953;45.508;-122.806;2023-04-20T01:50:54;101702.84;;;13.16;44.68
50852;BME280;43953;45.508;-122.806;2023-04-20T01:51:25;101707.41;;;13.15;45.19
50852;BME280;43953;45.508;-122.806;2023-04-20T01:51:58;101707.41;;;13.15;45.24
50852;BME280;43953;45.508;-122.806;2023-04-20T01:52:29;101705.75;;;13.14;45.54
50852;BME280;43953;45.508;-122.806;2023-04-20T01:53:01;101707.63;;;13.14;45.38
50852;BME280;43953;45.508;-122.806;2023-04-20T01:53:33;101707.22;;;13.10;45.32
50852;BME280;43953;45.508;-122.806;2023-04-20T01:54:05;101706.34;;;13.10;45.55
50852;BME280;43953;45.508;-122.806;2023-04-20T01:54:36;101710.94;;;13.09;45.35
50852;BME280;43953;45.508;-122.806;2023-04-20T01:55:08;101713.00;;;13.07;45.75
50852;BME280;43953;45.508;-122.806;2023-04-20T01:55:41;101715.09;;;13.05;46.09
50852;BME280;43953;45.508;-122.806;2023-04-20T01:56:13;101715.47;;;13.02;46.34
50852;BME280;43953;45.508;-122.806;2023-04-20T01:56:45;101716.50;;;13.01;46.58
50852;BME280;43953;45.508;-122.806;2023-04-20T01:57:17;101716.91;;;12.98;46.46
50852;BME280;43953;45.508;-122.806;2023-04-20T01:57:49;101719.00;;;12.96;46.46
50852;BME280;43953;45.508;-122.806;2023-04-20T01:58:20;101718.16;;;12.95;46.44
50852;BME280;43953;45.508;-122.806;2023-04-20T01:58:53;101719.19;;;12.94;46.18
50852;BME280;43953;45.508;-122.806;2023-04-20T01:59:24;101718.34;;;12.94;46.37
50852;BME280;43953;45.508;-122.806;2023-04-20T02:00:01;101719.19;;;12.94;46.08
50852;BME280;43953;45.508;-122.806;2023-04-20T02:00:32;101717.31;;;12.95;46.31
50852;BME280;43953;45.508;-122.806;2023-04-20T02:01:04;101718.34;;;12.94;46.00
50852;BME280;43953;45.508;-122.806;2023-04-20T02:01:36;101721.25;;;12.92;46.06
50852;BME280;43953;45.508;-122.806;2023-04-20T02:02:08;101723.50;;;12.89;46.33
50852;BME280;43953;45.508;-122.806;2023-04-20T02:02:39;101718.31;;;12.87;45.87
50852;BME280;43953;45.508;-122.806;2023-04-20T02:03:11;101719.34;;;12.86;46.20
50852;BME280;43953;45.508;-122.806;2023-04-20T02:03:43;101722.03;;;12.86;46.47
50852;BME280;43953;45.508;-122.806;2023-04-20T02:04:15;101721.22;;;12.86;46.37
50852;BME280;43953;45.508;-122.806;2023-04-20T02:04:47;101718.72;;;12.84;46.53
50852;BME280;43953;45.508;-122.806;2023-04-20T02:05:19;101727.00;;;12.83;46.34
50852;BME280;43953;45.508;-122.806;2023-04-20T02:05:50;101731.78;;;12.81;46.61
50852;BME280;43953;45.508;-122.806;2023-04-20T02:06:22;101727.41;;;12.80;46.66
50852;BME280;43953;45.508;-122.806;2023-04-20T02:06:54;101730.13;;;12.80;46.70
50852;BME280;43953;45.508;-122.806;2023-04-20T02:07:26;101734.88;;;12.78;46.79
50852;BME280;43953;45.508;-122.806;2023-04-20T02:07:58;101731.16;;;12.79;46.41
50852;BME280;43953;45.508;-122.806;2023-04-20T02:08:29;101724.72;;;12.80;46.11
50852;BME280;43953;45.508;-122.806;2023-04-20T02:09:01;101726.59;;;12.79;46.28
50852;BME280;43953;45.508;-122.806;2023-04-20T02:09:33;101734.03;;;12.77;45.92
50852;BME280;43953;45.508;-122.806;2023-04-20T02:10:05;101727.16;;;12.74;45.87
50852;BME280;43953;45.508;-122.806;2023-04-20T02:10:37;101729.25;;;12.72;45.98
50852;BME280;43953;45.508;-122.806;2023-04-20T02:11:08;101737.34;;;12.72;46.08
50852;BME280;43953;45.508;-122.806;2023-04-20T02:11:40;101735.66;;;12.71;46.40
50852;BME280;43953;45.508;-122.806;2023-04-20T02:12:12;101731.31;;;12.70;46.46
50852;BME280;43953;45.508;-122.806;2023-04-20T02:12:44;101733.38;;;12.68;46.56
50852;BME280;43953;45.508;-122.806;2023-04-20T02:13:16;101735.88;;;12.70;46.52
50852;BME280;43953;45.508;-122.806;2023-04-20T02:13:47;101739.41;;;12.70;46.92
50852;BME280;43953;45.508;-122.806;2023-04-20T02:14:19;101730.66;;;12.68;46.61
50852;BME280;43953;45.508;-122.806;2023-04-20T02:14:51;101740.66;;;12.68;46.47
50852;BME280;43953;45.508;-122.806;2023-04-20T02:15:23;101740.84;;;12.66;46.78
50852;BME280;43953;45.508;-122.806;2023-04-20T02:15:55;101737.09;;;12.67;46.74
50852;BME280;43953;45.508;-122.806;2023-04-20T02:16:27;101738.16;;;12.66;47.22
50852;BME280;43953;45.508;-122.806;2023-04-20T02:17:00;101735.63;;;12.65;47.23
50852;BME280;43953;45.508;-122.806;2023-04-20T02:17:32;101742.25;;;12.62;47.19
50852;BME280;43953;45.508;-122.806;2023-04-20T02:18:04;101741.66;;;12.60;47.09
50852;BME280;43953;45.508;-122.806;2023-04-20T02:18:36;101748.28;;;12.58;47.19
50852;BME280;43953;45.508;-122.806;2023-04-20T02:19:07;101742.44;;;12.54;47.24
50852;BME280;43953;45.508;-122.806;2023-04-20T02:19:40;101746.97;;;12.53;47.03
50852;BME280;43953;45.508;-122.806;2023-04-20T02:20:11;101744.50;;;12.52;47.17
50852;BME280;43953;45.508;-122.806;2023-04-20T02:20:44;101749.06;;;12.51;47.03
50852;BME280;43953;45.508;-122.806;2023-04-20T02:21:16;101752.59;;;12.52;47.22
50852;BME280;43953;45.508;-122.806;2023-04-20T02:21:47;101756.31;;;12.51;47.49
50852;BME280;43953;45.508;-122.806;2023-04-20T02:22:19;101751.94;;;12.50;47.70
50852;BME280;43953;45.508;-122.806;2023-04-20T02:22:51;101756.91;;;12.46;47.45
50852;BME280;43953;45.508;-122.806;2023-04-20T02:23:23;101761.47;;;12.46;47.47
50852;BME280;43953;45.508;-122.806;2023-04-20T02:23:54;101759.19;;;12.43;47.49
50852;BME280;43953;45.508;-122.806;2023-04-20T02:24:26;101755.00;;;12.40;47.70
50852;BME280;43953;45.508;-122.806;2023-04-20T02:24:58;101755.38;;;12.37;47.79
50852;BME280;43953;45.508;-122.806;2023-04-20T02:25:30;101760.78;;;12.37;47.83
50852;BME280;43953;45.508;-122.806;2023-04-20T02:26:01;101751.84;;;12.37;47.88
50852;BME280;43953;45.508;-122.806;2023-04-20T02:26:33;101751.22;;;12.35;47.40
50852;BME280;43953;45.508;-122.806;2023-04-20T02:27:05;101745.16;;;12.33;47.49
50852;BME280;43953;45.508;-122.806;2023-04-20T02:27:37;101760.75;;;12.31;47.77
50852;BME280;43953;45.508;-122.806;2023-04-20T02:28:08;101750.78;;;12.31;47.88
50852;BME280;43953;45.508;-122.806;2023-04-20T02:28:40;101755.34;;;12.31;47.70
50852;BME280;43953;45.508;-122.806;2023-04-20T02:29:12;101751.78;;;12.30;47.72
50852;BME280;43953;45.508;-122.806;2023-04-20T02:29:43;101758.22;;;12.29;47.92
50852;BME280;43953;45.508;-122.806;2023-04-20T02:30:15;101755.53;;;12.29;47.98
50852;BME280;43953;45.508;-122.806;2023-04-20T02:30:47;101751.34;;;12.26;48.43
50852;BME280;43953;45.508;-122.806;2023-04-20T02:31:19;101750.50;;;12.26;48.58
50852;BME280;43953;45.508;-122.806;2023-04-20T02:31:50;101749.69;;;12.25;48.28
50852;BME280;43953;45.508;-122.806;2023-04-20T02:32:22;101758.19;;;12.22;48.19
50852;BME280;43953;45.508;-122.806;2023-04-20T02:32:54;101758.19;;;12.22;48.15
50852;BME280;43953;45.508;-122.806;2023-04-20T02:33:26;101751.09;;;12.21;48.43
50852;BME280;43953;45.508;-122.806;2023-04-20T02:33:57;101756.47;;;12.21;48.59
50852;BME280;43953;45.508;-122.806;2023-04-20T02:34:29;101761.88;;;12.21;48.83
50852;BME280;43953;45.508;-122.806;2023-04-20T02:35:02;101755.88;;;12.19;48.59
50852;BME280;43953;45.508;-122.806;2023-04-20T02:35:34;101748.16;;;12.16;48.17
50852;BME280;43953;45.508;-122.806;2023-04-20T02:36:06;101754.78;;;12.14;48.23
50852;BME280;43953;45.508;-122.806;2023-04-20T02:36:38;101756.00;;;12.11;48.45
50852;BME280;43953;45.508;-122.806;2023-04-20T02:37:10;101758.69;;;12.11;48.68
50852;BME280;43953;45.508;-122.806;2023-04-20T02:37:42;101752.47;;;12.11;48.69
50852;BME280;43953;45.508;-122.806;2023-04-20T02:38:14;101760.56;;;12.11;48.67
50852;BME280;43953;45.508;-122.806;2023-04-20T02:38:46;101751.81;;;12.09;48.54
50852;BME280;43953;45.508;-122.806;2023-04-20T02:39:18;101756.00;;;12.11;48.36
50852;BME280;43953;45.508;-122.806;2023-04-20T02:39:50;101760.34;;;12.12;48.44
50852;BME280;43953;45.508;-122.806;2023-04-20T02:40:21;101763.06;;;12.12;48.35
50852;BME280;43953;45.508;-122.806;2023-04-20T02:40:53;101760.56;;;12.11;48.36
50852;BME280;43953;45.508;-122.806;2023-04-20T02:41:25;101767.44;;;12.13;48.05